createdAt,value
2019-05-11T00:01:52.491Z,100388.41
2019-05-11T00:04:24.389Z,100381.83
2019-05-11T00:06:57.080Z,100376.42
2019-05-11T00:09:29.238Z,100378.76
2019-05-11T00:12:00.907Z,100377.41
2019-05-11T00:14:32.961Z,100379.75
2019-05-11T00:17:04.507Z,100384.26
2019-05-11T00:19:36.415Z,100386.77
2019-05-11T00:22:08.126Z,100388.42
2019-05-11T00:24:40.045Z,100381.70
2019-05-11T00:27:11.844Z,100376.97
2019-05-11T00:29:43.715Z,100378.97
2019-05-11T00:32:15.713Z,100373.77
2019-05-11T00:34:47.556Z,100374.06
2019-05-11T00:37:19.497Z,100368.20
2019-05-11T00:39:51.244Z,100367.69
2019-05-11T00:42:23.244Z,100360.97
2019-05-11T00:44:55.210Z,100360.32
2019-05-11T00:47:27.063Z,100358.81
2019-05-11T00:49:58.795Z,100352.96
2019-05-11T00:52:30.960Z,100353.49
2019-05-11T00:55:02.573Z,100356.57
2019-05-11T00:57:34.518Z,100353.27
2019-05-11T01:00:09.728Z,100229.26
2019-05-11T01:02:41.324Z,100357.17
2019-05-11T01:05:13.248Z,100355.83
2019-05-11T01:07:45.294Z,100359.03
2019-05-11T01:10:28.732Z,100355.66
2019-05-11T01:12:50.915Z,100358.17
2019-05-11T01:15:23.190Z,100357.17
2019-05-11T01:17:55.495Z,100364.37
2019-05-11T01:20:27.257Z,100374.12
2019-05-11T01:22:59.612Z,100371.05
2019-05-11T01:25:31.606Z,100365.67
2019-05-11T01:28:03.653Z,100375.25
2019-05-11T01:30:38.541Z,100369.52
2019-05-11T01:33:08.877Z,100370.69
2019-05-11T01:35:40.464Z,100368.48
2019-05-11T01:38:12.428Z,100372.87
2019-05-11T01:40:57.750Z,100375.77
2019-05-11T01:43:17.375Z,100378.76
2019-05-11T01:45:49.661Z,100372.56
2019-05-11T01:48:21.280Z,100379.10
2019-05-11T01:50:53.306Z,100373.91
2019-05-11T01:53:25.057Z,100373.39
2019-05-11T01:55:57.286Z,100372.04
2019-05-11T01:58:28.955Z,100371.21
2019-05-11T02:01:00.833Z,100374.89
2019-05-11T02:03:32.669Z,100370.00
2019-05-11T02:06:04.732Z,100371.16
2019-05-11T02:08:36.437Z,100367.13
2019-05-11T02:11:15.954Z,100370.01
2019-05-11T02:13:42.058Z,100363.68
2019-05-11T02:16:13.856Z,100368.05
2019-05-11T02:18:45.603Z,100371.61
2019-05-11T02:21:17.656Z,100373.13
2019-05-11T02:23:49.317Z,100376.81
2019-05-11T02:26:21.592Z,100374.94
2019-05-11T02:28:53.415Z,100390.98
2019-05-11T02:31:25.281Z,100385.39
2019-05-11T02:33:58.172Z,100387.02
2019-05-11T02:36:30.165Z,100390.14
2019-05-11T02:39:02.157Z,100395.95
2019-05-11T02:41:36.838Z,100402.66
2019-05-11T02:44:07.419Z,100404.13
2019-05-11T02:46:39.444Z,100405.77
2019-05-11T02:49:11.080Z,100411.56
2019-05-11T02:51:43.892Z,100414.61
2019-05-11T02:54:15.809Z,100415.21
2019-05-11T02:56:47.694Z,100411.08
2019-05-11T02:59:19.546Z,100413.25
2019-05-11T03:01:51.221Z,100408.94
2019-05-11T03:04:22.950Z,100413.56
2019-05-11T03:06:54.950Z,100404.94
2019-05-11T03:09:26.698Z,100406.67
2019-05-11T03:11:58.855Z,100406.22
2019-05-11T03:14:30.594Z,100411.70
2019-05-11T03:17:09.975Z,100409.64
2019-05-11T03:19:41.554Z,100408.20
2019-05-11T03:22:13.502Z,100412.28
2019-05-11T03:24:45.614Z,100407.27
2019-05-11T03:27:17.711Z,100414.55
2019-05-11T03:29:49.468Z,100421.64
2019-05-11T03:32:21.499Z,100421.45
2019-05-11T03:34:53.097Z,100428.18
2019-05-11T03:37:24.949Z,100424.41
2019-05-11T03:39:56.881Z,100435.92
2019-05-11T03:42:28.840Z,100430.92
2019-05-11T03:45:00.491Z,100437.18
2019-05-11T03:47:32.391Z,100446.37
2019-05-11T03:50:03.630Z,100451.80
2019-05-11T03:52:35.291Z,100455.86
2019-05-11T03:55:06.433Z,100447.92
2019-05-11T03:57:38.572Z,100459.51
2019-05-11T04:00:11.253Z,100452.55
2019-05-11T04:02:43.218Z,100458.05
2019-05-11T04:05:14.858Z,100458.74
2019-05-11T04:07:46.034Z,100453.71
2019-05-11T04:10:17.638Z,100458.51
2019-05-11T04:12:49.859Z,100464.16
2019-05-11T04:15:21.834Z,100461.11
2019-05-11T04:17:53.969Z,100464.27
2019-05-11T04:20:26.119Z,100461.42
2019-05-11T04:22:58.426Z,100468.30
2019-05-11T04:25:30.148Z,100463.12
2019-05-11T04:28:01.928Z,100457.64
2019-05-11T04:30:33.814Z,100468.31
2019-05-11T04:33:05.527Z,100467.72
2019-05-11T04:35:37.721Z,100465.27
2019-05-11T04:38:09.646Z,100449.50
2019-05-11T04:40:41.515Z,100475.08
2019-05-11T04:43:12.902Z,100476.48
2019-05-11T04:45:44.142Z,100483.95
2019-05-11T04:48:15.566Z,100486.86
2019-05-11T04:50:47.422Z,100490.05
2019-05-11T04:53:19.298Z,100488.13
2019-05-11T04:55:50.557Z,100483.06
2019-05-11T04:58:21.873Z,100482.14
2019-05-11T05:00:55.464Z,100483.96
2019-05-11T05:03:40.326Z,100484.44
2019-05-11T05:06:20.980Z,100496.55
2019-05-11T05:08:34.681Z,100493.10
2019-05-11T05:11:06.580Z,100503.47
2019-05-11T05:13:38.173Z,100500.91
2019-05-11T05:16:09.232Z,100501.16
2019-05-11T05:18:41.071Z,100500.55
2019-05-11T05:21:13.362Z,100496.80
2019-05-11T05:23:45.236Z,100497.83
2019-05-11T05:26:16.953Z,100498.39
2019-05-11T05:28:48.711Z,100495.91
2019-05-11T05:31:20.264Z,100494.63
2019-05-11T05:33:52.330Z,100490.14
2019-05-11T05:36:23.793Z,100488.08
2019-05-11T05:38:54.751Z,100493.57
2019-05-11T05:41:25.997Z,100493.91
2019-05-11T05:43:57.427Z,100498.80
2019-05-11T05:46:28.786Z,100501.77
2019-05-11T05:49:00.619Z,100507.92
2019-05-11T05:51:32.685Z,100504.32
2019-05-11T05:54:04.374Z,100504.27
2019-05-11T05:56:35.987Z,100501.77
2019-05-11T05:59:07.287Z,100508.41
2019-05-11T06:01:38.615Z,100509.98
2019-05-11T06:04:10.776Z,100507.14
2019-05-11T06:06:42.419Z,100512.70
2019-05-11T06:09:14.302Z,100512.70
2019-05-11T06:11:45.931Z,100508.22
2019-05-11T06:14:17.527Z,100511.37
2019-05-11T06:16:49.127Z,100514.86
2019-05-11T06:19:20.533Z,100513.80
2019-05-11T06:21:52.167Z,100523.12
2019-05-11T06:24:24.306Z,100518.22
2019-05-11T06:26:55.272Z,100518.05
2019-05-11T06:29:26.744Z,100525.26
2019-05-11T06:31:58.453Z,100524.87
2019-05-11T06:34:30.241Z,100517.27
2019-05-11T06:37:01.773Z,100514.42
2019-05-11T06:39:33.619Z,100516.02
2019-05-11T06:42:05.223Z,100518.44
2019-05-11T06:44:36.887Z,100522.03
2019-05-11T06:47:07.810Z,100528.37
2019-05-11T06:49:40.444Z,100523.41
2019-05-11T06:52:12.109Z,100524.70
2019-05-11T06:54:43.958Z,100526.52
2019-05-11T06:57:14.933Z,100524.12
2019-05-11T06:59:46.458Z,100523.25
2019-05-11T07:02:18.016Z,100519.80
2019-05-11T07:04:49.287Z,100523.04
2019-05-11T07:07:20.637Z,100525.56
2019-05-11T07:09:52.785Z,100524.08
2019-05-11T07:12:27.515Z,100523.84
2019-05-11T07:14:58.079Z,100521.28
2019-05-11T07:17:29.790Z,100526.47
2019-05-11T07:20:01.577Z,100530.89
2019-05-11T07:22:34.035Z,100533.56
2019-05-11T07:25:07.812Z,100529.49
2019-05-11T07:27:39.687Z,100532.35
2019-05-11T07:30:11.945Z,100526.30
2019-05-11T07:32:44.971Z,100525.02
2019-05-11T07:35:18.668Z,100519.38
2019-05-11T07:37:49.669Z,100519.96
2019-05-11T07:40:22.436Z,100514.54
2019-05-11T07:42:54.597Z,100515.69
2019-05-11T07:45:28.338Z,100515.36
2019-05-11T07:47:59.594Z,100528.19
2019-05-11T07:50:31.513Z,100526.72
2019-05-11T07:53:04.126Z,100522.84
2019-05-11T07:55:38.565Z,100533.16
2019-05-11T07:58:10.274Z,100530.55
2019-05-11T08:00:41.782Z,100536.61
2019-05-11T08:03:13.233Z,100535.54
2019-05-11T08:05:45.094Z,100533.31
2019-05-11T08:08:18.089Z,100536.06
2019-05-11T08:10:49.989Z,100536.06
2019-05-11T08:13:21.882Z,100541.63
2019-05-11T08:15:53.997Z,100543.10
2019-05-11T08:18:25.051Z,100536.99
2019-05-11T08:20:58.245Z,100542.76
2019-05-11T08:23:30.032Z,100542.65
2019-05-11T08:26:02.157Z,100545.03
2019-05-11T08:28:34.068Z,100546.38
2019-05-11T08:31:08.091Z,100548.45
2019-05-11T08:33:39.592Z,100554.37
2019-05-11T08:36:11.606Z,100547.58
2019-05-11T08:38:43.714Z,100549.31
2019-05-11T08:41:15.394Z,100556.14
2019-05-11T08:43:48.063Z,100548.50
2019-05-11T08:46:19.865Z,100547.69
2019-05-11T08:48:51.325Z,100540.23
2019-05-11T08:51:22.643Z,100543.95
2019-05-11T08:53:55.374Z,100541.68
2019-05-11T08:56:28.736Z,100541.15
2019-05-11T08:59:00.200Z,100536.94
2019-05-11T09:01:32.263Z,100536.49
2019-05-11T09:04:03.785Z,100536.94
2019-05-11T09:06:37.624Z,100539.85
2019-05-11T09:09:13.167Z,100540.95
2019-05-11T09:11:43.494Z,100536.09
2019-05-11T09:14:15.316Z,100544.29
2019-05-11T09:16:48.863Z,100544.22
2019-05-11T09:19:20.064Z,100543.73
2019-05-11T09:21:51.871Z,100545.36
2019-05-11T09:24:23.684Z,100537.98
2019-05-11T09:26:55.388Z,100544.80
2019-05-11T09:29:28.147Z,100549.36
2019-05-11T09:32:00.269Z,100547.87
2019-05-11T09:34:32.676Z,100557.77
2019-05-11T09:37:04.850Z,100563.97
2019-05-11T09:39:38.285Z,100558.84
2019-05-11T09:42:10.747Z,100572.44
2019-05-11T09:44:48.514Z,100564.61
2019-05-11T09:47:20.273Z,100564.44
2019-05-11T09:49:52.038Z,100560.87
2019-05-11T09:52:23.585Z,100551.52
2019-05-11T09:54:57.903Z,100556.63
2019-05-11T09:57:28.923Z,100556.73
2019-05-11T10:00:00.685Z,100557.24
2019-05-11T10:02:34.278Z,100564.95
2019-05-11T10:05:08.354Z,100560.88
2019-05-11T10:07:40.296Z,100561.14
2019-05-11T10:10:13.191Z,100563.22
2019-05-11T10:12:44.591Z,100563.08
2019-05-11T10:15:18.751Z,100566.45
2019-05-11T10:17:49.912Z,100571.78
2019-05-11T10:20:23.069Z,100565.98
2019-05-11T10:22:54.806Z,100566.55
2019-05-11T10:25:28.725Z,100573.96
2019-05-11T10:28:00.586Z,100575.39
2019-05-11T10:30:32.431Z,100561.89
2019-05-11T10:33:04.189Z,100578.86
2019-05-11T10:35:37.819Z,100574.63
2019-05-11T10:38:09.543Z,100572.27
2019-05-11T10:40:41.538Z,100575.52
2019-05-11T10:43:12.955Z,100580.30
2019-05-11T10:45:44.774Z,100575.08
2019-05-11T10:48:17.763Z,100584.47
2019-05-11T10:50:49.578Z,100584.39
2019-05-11T10:53:21.539Z,100581.92
2019-05-11T10:55:53.541Z,100589.87
2019-05-11T10:58:25.246Z,100588.05
2019-05-11T11:00:58.217Z,100591.22
2019-05-11T11:03:30.131Z,100601.07
2019-05-11T11:06:01.865Z,100607.40
2019-05-11T11:08:33.621Z,100609.13
2019-05-11T11:11:08.130Z,100616.22
2019-05-11T11:13:40.096Z,100620.31
2019-05-11T11:16:12.057Z,100618.77
2019-05-11T11:18:43.822Z,100620.41
2019-05-11T11:21:21.772Z,100623.63
2019-05-11T11:23:49.222Z,100625.88
2019-05-11T11:26:20.873Z,100622.29
2019-05-11T11:28:52.727Z,100628.77
2019-05-11T11:31:24.999Z,100622.64
2019-05-11T11:33:59.933Z,100621.86
2019-05-11T11:36:31.563Z,100628.15
2019-05-11T11:39:03.815Z,100622.63
2019-05-11T11:41:37.751Z,100625.77
2019-05-11T11:44:09.392Z,100625.80
2019-05-11T11:46:50.795Z,100622.67
2019-05-11T11:49:13.712Z,100633.17
2019-05-11T11:51:45.431Z,100619.49
2019-05-11T11:54:18.173Z,100623.80
2019-05-11T11:56:50.424Z,100618.95
2019-05-11T11:59:22.088Z,100617.25
2019-05-11T12:01:54.245Z,100618.48
2019-05-11T12:04:28.263Z,100614.34
2019-05-11T12:06:59.834Z,100618.53
2019-05-11T12:09:31.978Z,100622.72
2019-05-11T12:12:03.842Z,100628.08
2019-05-11T12:14:38.334Z,100618.45
2019-05-11T12:17:11.112Z,100623.08
2019-05-11T12:19:43.062Z,100623.96
2019-05-11T12:22:14.902Z,100621.69
2019-05-11T12:24:48.194Z,100623.05
2019-05-11T12:27:20.040Z,100614.81
2019-05-11T12:29:51.761Z,100624.90
2019-05-11T12:32:27.183Z,100624.23
2019-05-11T12:34:58.977Z,100620.28
2019-05-11T12:37:32.264Z,100621.87
2019-05-11T12:40:05.239Z,100624.53
2019-05-11T12:42:37.952Z,100619.59
2019-05-11T12:45:10.177Z,100626.13
2019-05-11T12:47:41.913Z,100628.25
2019-05-11T12:50:13.714Z,100631.96
2019-05-11T12:52:47.691Z,100630.08
2019-05-11T12:55:19.297Z,100629.23
2019-05-11T12:57:51.296Z,100622.00
2019-05-11T13:00:23.160Z,100633.86
2019-05-11T13:02:56.009Z,100639.94
2019-05-11T13:05:28.839Z,100639.85
2019-05-11T13:08:00.689Z,100647.58
2019-05-11T13:10:32.550Z,100649.21
2019-05-11T13:13:04.566Z,100644.39
2019-05-11T13:15:38.754Z,100654.66
2019-05-11T13:18:10.953Z,100646.21
2019-05-11T13:20:42.705Z,100651.53
2019-05-11T13:23:14.629Z,100645.98
2019-05-11T13:25:48.114Z,100654.17
2019-05-11T13:28:20.046Z,100659.06
2019-05-11T13:30:51.480Z,100659.59
2019-05-11T13:33:23.743Z,100657.61
2019-05-11T13:35:54.915Z,100663.06
2019-05-11T13:38:28.339Z,100657.17
2019-05-11T13:41:00.341Z,100661.92
2019-05-11T13:43:32.041Z,100664.13
2019-05-11T13:46:03.859Z,100659.52
2019-05-11T13:48:35.858Z,100660.91
2019-05-11T13:51:08.847Z,100663.05
2019-05-11T13:53:40.618Z,100657.84
2019-05-11T13:56:12.285Z,100664.66
2019-05-11T13:58:44.091Z,100669.30
2019-05-11T14:01:18.187Z,100669.20
2019-05-11T14:03:50.278Z,100668.83
2019-05-11T14:06:22.219Z,100639.64
2019-05-11T14:08:54.079Z,100673.36
2019-05-11T14:11:28.504Z,100666.86
2019-05-11T14:13:59.560Z,100670.92
2019-05-11T14:16:31.824Z,100678.83
2019-05-11T14:19:03.797Z,100668.82
2019-05-11T14:21:37.793Z,100672.69
2019-05-11T14:24:09.041Z,100671.83
2019-05-11T14:26:40.794Z,100668.54
2019-05-11T14:29:12.758Z,100678.09
2019-05-11T14:31:44.560Z,100671.19
2019-05-11T14:34:18.139Z,100679.75
2019-05-11T14:36:50.532Z,100685.55
2019-05-11T14:39:23.102Z,100687.02
2019-05-11T14:41:54.961Z,100682.58
2019-05-11T14:44:28.533Z,100654.14
2019-05-11T14:47:02.650Z,100685.00
2019-05-11T14:49:34.300Z,100682.06
2019-05-11T14:52:08.336Z,100685.95
2019-05-11T14:54:39.582Z,100685.70
2019-05-11T14:57:11.550Z,100690.66
2019-05-11T14:59:43.272Z,100695.23
2019-05-11T15:02:33.280Z,100697.03
2019-05-11T15:05:05.691Z,100703.00
2019-05-11T15:07:38.528Z,100694.12
2019-05-11T15:10:10.666Z,100697.69
2019-05-11T15:12:43.689Z,100691.73
2019-05-11T15:15:18.667Z,100696.31
2019-05-11T15:17:50.364Z,100705.80
2019-05-11T15:20:22.116Z,100706.41
2019-05-11T15:22:53.867Z,100704.66
2019-05-11T15:25:25.434Z,100701.34
2019-05-11T15:27:58.408Z,100702.80
2019-05-11T15:30:30.470Z,100703.12
2019-05-11T15:33:02.185Z,100709.57
2019-05-11T15:35:33.988Z,100702.39
2019-05-11T15:38:08.543Z,100707.53
2019-05-11T15:40:42.316Z,100711.19
2019-05-11T15:43:14.127Z,100706.77
2019-05-11T15:45:45.834Z,100719.41
2019-05-11T15:48:18.663Z,100715.72
2019-05-11T15:50:50.630Z,100718.13
2019-05-11T15:53:22.572Z,100718.25
2019-05-11T15:55:54.505Z,100718.22
2019-05-11T15:58:29.043Z,100724.27
2019-05-11T16:01:00.145Z,100724.19
2019-05-11T16:03:32.953Z,100724.42
2019-05-11T16:06:04.796Z,100730.98
2019-05-11T16:08:37.650Z,100731.10
2019-05-11T16:11:09.558Z,100727.83
2019-05-11T16:13:41.105Z,100730.02
2019-05-11T16:16:13.229Z,100730.10
2019-05-11T16:18:44.826Z,100731.39
2019-05-11T16:21:18.183Z,100733.89
2019-05-11T16:23:49.887Z,100740.03
2019-05-11T16:26:22.233Z,100739.11
2019-05-11T16:28:53.916Z,100743.89
2019-05-11T16:31:25.598Z,100747.76
2019-05-11T16:33:58.945Z,100735.25
2019-05-11T16:36:31.130Z,100747.02
2019-05-11T16:39:04.713Z,100741.78
2019-05-11T16:41:38.151Z,100746.81
2019-05-11T16:44:10.107Z,100749.00
2019-05-11T16:46:41.922Z,100750.73
2019-05-11T16:49:24.035Z,100762.78
2019-05-11T16:51:46.956Z,100758.59
2019-05-11T16:54:18.785Z,100761.98
2019-05-11T16:56:50.989Z,100762.67
2019-05-11T16:59:22.989Z,100762.58
2019-05-11T17:01:54.782Z,100765.14
2019-05-11T17:04:29.224Z,100761.23
2019-05-11T17:07:00.042Z,100767.02
2019-05-11T17:09:31.995Z,100771.36
2019-05-11T17:12:04.037Z,100767.89
2019-05-11T17:14:37.226Z,100772.86
2019-05-11T17:17:10.631Z,100779.52
2019-05-11T17:19:46.221Z,100777.91
2019-05-11T17:22:15.819Z,100778.64
2019-05-11T17:24:48.438Z,100789.87
2019-05-11T17:27:20.423Z,100795.48
2019-05-11T17:29:52.600Z,100795.48
2019-05-11T17:32:24.268Z,100799.73
2019-05-11T17:34:58.117Z,100800.94
2019-05-11T17:37:29.820Z,100804.44
2019-05-11T17:40:02.023Z,100812.09
2019-05-11T17:42:33.828Z,100817.73
2019-05-11T17:45:08.812Z,100821.75
2019-05-11T17:47:40.622Z,100829.16
2019-05-11T17:50:12.535Z,100829.56
2019-05-11T17:52:44.326Z,100836.09
2019-05-11T17:55:18.301Z,100839.02
2019-05-11T17:57:53.771Z,100829.63
2019-05-11T18:00:23.816Z,100844.22
2019-05-11T18:02:55.393Z,100840.42
2019-05-11T18:05:27.558Z,100847.61
2019-05-11T18:07:59.503Z,100848.34
2019-05-11T18:10:31.623Z,100851.81
2019-05-11T18:13:04.436Z,100847.33
2019-05-11T18:15:38.036Z,100853.98
2019-05-11T18:18:09.814Z,100850.23
2019-05-11T18:20:41.980Z,100853.30
2019-05-11T18:23:13.538Z,100849.95
2019-05-11T18:25:47.941Z,100842.92
2019-05-11T18:28:19.451Z,100846.66
2019-05-11T18:30:51.411Z,100852.00
2019-05-11T18:33:23.116Z,100851.82
2019-05-11T18:35:54.935Z,100864.80
2019-05-11T18:38:27.688Z,100868.36
2019-05-11T18:41:00.060Z,100861.27
2019-05-11T18:43:31.891Z,100867.16
2019-05-11T18:46:03.915Z,100870.20
2019-05-11T18:48:37.963Z,100875.59
2019-05-11T18:51:09.193Z,100877.87
2019-05-11T18:53:40.790Z,100875.02
2019-05-11T18:56:12.622Z,100872.89
2019-05-11T18:58:44.459Z,100869.03
2019-05-11T19:01:17.862Z,100866.52
2019-05-11T19:03:49.835Z,100867.03
2019-05-11T19:06:21.779Z,100864.52
2019-05-11T19:08:53.907Z,100866.98
2019-05-11T19:11:28.715Z,100862.70
2019-05-11T19:13:59.996Z,100860.67
2019-05-11T19:16:31.867Z,100861.14
2019-05-11T19:19:03.770Z,100868.20
2019-05-11T19:21:36.043Z,100866.64
2019-05-11T19:24:09.338Z,100863.77
2019-05-11T19:26:41.343Z,100858.52
2019-05-11T19:29:12.989Z,100864.66
2019-05-11T19:31:44.914Z,100864.95
2019-05-11T19:34:17.674Z,100870.38
2019-05-11T19:36:50.113Z,100868.55
2019-05-11T19:39:22.176Z,100877.72
2019-05-11T19:41:54.131Z,100877.28
2019-05-11T19:44:27.901Z,100876.98
2019-05-11T19:46:59.499Z,100878.27
2019-05-11T19:49:31.164Z,100887.16
2019-05-11T19:52:03.022Z,100892.23
2019-05-11T19:54:34.862Z,100888.46
2019-05-11T19:57:08.376Z,100898.99
2019-05-11T19:59:40.113Z,100892.67
2019-05-11T20:02:12.067Z,100896.50
2019-05-11T20:04:43.918Z,100891.70
2019-05-11T20:07:18.341Z,100893.30
2019-05-11T20:09:49.574Z,100895.53
2019-05-11T20:12:21.746Z,100900.59
2019-05-11T20:14:53.492Z,100895.80
2019-05-11T20:17:25.386Z,100899.66
2019-05-11T20:19:58.106Z,100905.28
2019-05-11T20:22:30.647Z,100904.70
2019-05-11T20:25:02.288Z,100914.84
2019-05-11T20:27:34.268Z,100918.73
2019-05-11T20:30:08.645Z,100922.30
2019-05-11T20:32:40.741Z,100922.00
2019-05-11T20:35:12.369Z,100920.36
2019-05-11T20:37:44.235Z,100916.71
2019-05-11T20:40:18.339Z,100918.71
2019-05-11T20:42:49.806Z,100917.58
2019-05-11T20:45:21.678Z,100921.16
2019-05-11T20:47:53.674Z,100922.15
2019-05-11T20:50:25.477Z,100918.93
2019-05-11T20:52:58.323Z,100913.75
2019-05-11T20:55:30.267Z,100921.20
2019-05-11T20:58:02.230Z,100919.37
2019-05-11T21:00:34.149Z,100922.37
2019-05-11T21:03:08.007Z,100919.94
2019-05-11T21:05:39.370Z,100921.28
2019-05-11T21:08:11.315Z,100932.23
2019-05-11T21:10:42.937Z,100935.77
2019-05-11T21:13:14.940Z,100938.80
2019-05-11T21:15:47.832Z,100940.77
2019-05-11T21:18:19.831Z,100942.41
2019-05-11T21:20:51.575Z,100942.06
2019-05-11T21:23:23.873Z,100945.41
2019-05-11T21:25:55.775Z,100946.06
2019-05-11T21:28:30.341Z,100952.63
2019-05-11T21:31:01.092Z,100949.94
2019-05-11T21:33:33.275Z,100921.75
2019-05-11T21:36:05.019Z,100953.84
2019-05-11T21:38:38.629Z,100945.63
2019-05-11T21:41:10.472Z,100946.37
2019-05-11T21:43:42.543Z,100944.50
2019-05-11T21:46:15.133Z,100945.02
2019-05-11T21:48:47.872Z,100947.67
2019-05-11T21:51:19.269Z,100943.59
2019-05-11T21:53:51.000Z,100948.28
2019-05-11T21:56:22.963Z,100946.41
2019-05-11T21:58:54.847Z,100950.92
2019-05-11T22:01:28.135Z,100950.23
2019-05-11T22:04:00.156Z,100953.78
2019-05-11T22:06:32.142Z,100956.48
2019-05-11T22:09:05.437Z,100957.62
2019-05-11T22:11:38.068Z,100957.62
2019-05-11T22:14:10.027Z,100958.80
2019-05-11T22:16:41.941Z,100957.14
2019-05-11T22:19:14.311Z,100957.67
2019-05-11T22:21:49.437Z,100955.84
2019-05-11T22:24:19.910Z,100957.94
2019-05-11T22:26:51.335Z,100955.81
2019-05-11T22:29:22.824Z,100952.08
2019-05-11T22:31:54.576Z,100956.86
2019-05-11T22:34:28.420Z,100959.77
2019-05-11T22:36:59.753Z,100957.62
2019-05-11T22:39:31.851Z,100957.83
2019-05-11T22:42:03.512Z,100956.02
2019-05-11T22:44:36.551Z,100956.05
2019-05-11T22:47:09.056Z,100958.60
2019-05-11T22:49:40.996Z,100955.76
2019-05-11T22:52:12.892Z,100960.00
2019-05-11T22:54:44.864Z,100957.95
2019-05-11T22:57:16.817Z,100944.53
2019-05-11T22:59:48.580Z,100959.17
2019-05-11T23:02:21.585Z,100962.88
2019-05-11T23:04:53.218Z,100964.25
2019-05-11T23:07:25.384Z,100955.52
2019-05-11T23:10:00.463Z,100953.70
2019-05-11T23:12:31.194Z,100963.47
2019-05-11T23:15:08.076Z,100964.97
2019-05-11T23:17:41.134Z,100968.34
2019-05-11T23:20:12.988Z,100964.32
2019-05-11T23:22:58.011Z,100962.97
2019-05-11T23:25:23.770Z,100965.17
2019-05-11T23:27:55.952Z,100962.63
2019-05-11T23:30:28.162Z,100963.98
2019-05-11T23:32:59.964Z,100965.33
2019-05-11T23:35:31.618Z,100962.98
2019-05-11T23:38:03.891Z,100975.41
2019-05-11T23:40:37.869Z,100972.55
2019-05-11T23:43:09.559Z,100973.75
2019-05-11T23:45:41.314Z,100969.88
2019-05-11T23:48:13.174Z,100967.00
2019-05-11T23:50:44.936Z,100965.67
2019-05-11T23:53:17.823Z,100968.00
2019-05-11T23:55:49.804Z,100969.19
2019-05-11T23:58:21.696Z,100973.05
